sensor_id;sensor_type;location;lat;lon;timestamp;pressure;altitude;pressure_sealevel;temperature;humidity
77159;BME280;66129;45.890;13.714;2023-07-20T00:01:38;100388.81;;;21.17;89.46
77159;BME280;66129;45.890;13.714;2023-07-20T00:04:03;100413.84;;;21.22;89.43
77159;BME280;66129;45.890;13.714;2023-07-20T00:06:31;100371.53;;;21.13;89.56
77159;BME280;66129;45.890;13.714;2023-07-20T00:08:57;100366.88;;;21.24;88.76
77159;BME280;66129;45.890;13.714;2023-07-20T00:11:26;100405.28;;;21.46;88.71
77159;BME280;66129;45.890;13.714;2023-07-20T00:13:55;100365.91;;;21.26;88.35
77159;BME280;66129;45.890;13.714;2023-07-20T00:16:20;100355.47;;;21.26;88.61
77159;BME280;66129;45.890;13.714;2023-07-20T00:18:46;100370.06;;;21.33;88.70
77159;BME280;66129;45.890;13.714;2023-07-20T00:21:11;100342.53;;;21.23;88.75
77159;BME280;66129;45.890;13.714;2023-07-20T00:23:37;100384.94;;;21.58;87.64
77159;BME280;66129;45.890;13.714;2023-07-20T00:26:03;100335.50;;;21.27;86.95
77159;BME280;66129;45.890;13.714;2023-07-20T00:28:28;100320.94;;;21.20;87.11
77159;BME280;66129;45.890;13.714;2023-07-20T00:30:54;100359.22;;;21.45;86.80
77159;BME280;66129;45.890;13.714;2023-07-20T00:33:19;100361.00;;;21.44;88.07
77159;BME280;66129;45.890;13.714;2023-07-20T00:35:45;100350.13;;;21.30;89.12
77159;BME280;66129;45.890;13.714;2023-07-20T00:38:10;100324.28;;;21.23;89.20
77159;BME280;66129;45.890;13.714;2023-07-20T00:40:40;100341.00;;;21.16;90.33
77159;BME280;66129;45.890;13.714;2023-07-20T00:43:08;100364.06;;;21.29;90.82
77159;BME280;66129;45.890;13.714;2023-07-20T00:45:34;100358.16;;;21.25;90.31
77159;BME280;66129;45.890;13.714;2023-07-20T00:48:02;100352.13;;;21.23;89.77
77159;BME280;66129;45.890;13.714;2023-07-20T00:50:29;100352.78;;;21.29;89.75
77159;BME280;66129;45.890;13.714;2023-07-20T00:52:56;100317.38;;;20.93;90.76
77159;BME280;66129;45.890;13.714;2023-07-20T00:55:23;100356.03;;;21.08;91.19
77159;BME280;66129;45.890;13.714;2023-07-20T00:57:49;100340.81;;;20.95;91.44
77159;BME280;66129;45.890;13.714;2023-07-20T01:00:16;100306.50;;;20.78;93.07
77159;BME280;66129;45.890;13.714;2023-07-20T01:02:41;100353.84;;;20.95;94.33
77159;BME280;66129;45.890;13.714;2023-07-20T01:05:07;100351.41;;;20.89;94.11
77159;BME280;66129;45.890;13.714;2023-07-20T01:07:55;100338.53;;;20.83;93.85
77159;BME280;66129;45.890;13.714;2023-07-20T01:10:57;100345.22;;;20.91;94.22
77159;BME280;66129;45.890;13.714;2023-07-20T01:13:25;100336.00;;;20.81;95.00
77159;BME280;66129;45.890;13.714;2023-07-20T01:16:00;100336.69;;;20.86;95.80
77159;BME280;66129;45.890;13.714;2023-07-20T01:18:31;100314.56;;;20.70;95.24
77159;BME280;66129;45.890;13.714;2023-07-20T01:21:06;100298.25;;;20.64;95.26
77159;BME280;66129;45.890;13.714;2023-07-20T01:26:46;100319.47;;;20.82;95.41
77159;BME280;66129;45.890;13.714;2023-07-20T01:29:28;100298.66;;;20.49;95.97
77159;BME280;66129;45.890;13.714;2023-07-20T01:32:00;100329.81;;;20.53;96.91
77159;BME280;66129;45.890;13.714;2023-07-20T01:34:29;100302.34;;;20.42;97.14
77159;BME280;66129;45.890;13.714;2023-07-20T01:36:56;100310.97;;;20.44;97.21
77159;BME280;66129;45.890;13.714;2023-07-20T01:39:23;100298.66;;;20.50;96.86
77159;BME280;66129;45.890;13.714;2023-07-20T01:41:49;100310.88;;;20.47;97.29
77159;BME280;66129;45.890;13.714;2023-07-20T01:44:14;100312.75;;;20.42;97.67
77159;BME280;66129;45.890;13.714;2023-07-20T01:46:40;100249.66;;;20.02;97.90
77159;BME280;66129;45.890;13.714;2023-07-20T01:49:05;100286.56;;;20.16;98.72
77159;BME280;66129;45.890;13.714;2023-07-20T01:51:31;100306.41;;;20.21;99.22
77159;BME280;66129;45.890;13.714;2023-07-20T01:53:57;100284.19;;;20.09;99.65
77159;BME280;66129;45.890;13.714;2023-07-20T01:56:22;100304.84;;;20.15;99.98
77159;BME280;66129;45.890;13.714;2023-07-20T01:58:48;100314.81;;;20.31;99.80
77159;BME280;66129;45.890;13.714;2023-07-20T02:01:13;100256.72;;;19.96;99.69
77159;BME280;66129;45.890;13.714;2023-07-20T02:03:38;100291.31;;;20.02;100.00
77159;BME280;66129;45.890;13.714;2023-07-20T02:06:04;100329.09;;;20.15;100.00
77159;BME280;66129;45.890;13.714;2023-07-20T02:08:32;100281.38;;;19.81;100.00
77159;BME280;66129;45.890;13.714;2023-07-20T02:10:57;100288.75;;;19.98;100.00
77159;BME280;66129;45.890;13.714;2023-07-20T02:13:23;100276.84;;;19.89;100.00
77159;BME280;66129;45.890;13.714;2023-07-20T02:15:48;100280.03;;;20.02;100.00
77159;BME280;66129;45.890;13.714;2023-07-20T02:18:14;100274.94;;;19.96;100.00
77159;BME280;66129;45.890;13.714;2023-07-20T02:20:41;100320.47;;;20.13;100.00
77159;BME280;66129;45.890;13.714;2023-07-20T02:23:06;100329.84;;;20.20;100.00
77159;BME280;66129;45.890;13.714;2023-07-20T02:25:32;100319.72;;;20.10;100.00
77159;BME280;66129;45.890;13.714;2023-07-20T02:27:57;100332.44;;;20.20;100.00
77159;BME280;66129;45.890;13.714;2023-07-20T02:30:24;100330.91;;;20.13;100.00
77159;BME280;66129;45.890;13.714;2023-07-20T02:32:49;100349.94;;;20.15;100.00
77159;BME280;66129;45.890;13.714;2023-07-20T02:35:15;100356.00;;;20.16;100.00
77159;BME280;66129;45.890;13.714;2023-07-20T02:37:43;100335.88;;;20.22;100.00
77159;BME280;66129;45.890;13.714;2023-07-20T02:40:10;100341.00;;;20.25;100.00
77159;BME280;66129;45.890;13.714;2023-07-20T02:42:36;100329.72;;;20.24;100.00
77159;BME280;66129;45.890;13.714;2023-07-20T02:45:02;100341.00;;;20.25;100.00
77159;BME280;66129;45.890;13.714;2023-07-20T02:47:29;100313.56;;;20.12;100.00
77159;BME280;66129;45.890;13.714;2023-07-20T02:49:54;100328.06;;;20.22;100.00
77159;BME280;66129;45.890;13.714;2023-07-20T02:52:20;100299.25;;;19.95;100.00
77159;BME280;66129;45.890;13.714;2023-07-20T02:54:45;100306.41;;;19.87;100.00
77159;BME280;66129;45.890;13.714;2023-07-20T02:57:11;100300.41;;;19.85;100.00
77159;BME280;66129;45.890;13.714;2023-07-20T02:59:36;100303.03;;;19.83;100.00
77159;BME280;66129;45.890;13.714;2023-07-20T03:02:02;100291.19;;;19.72;100.00
77159;BME280;66129;45.890;13.714;2023-07-20T03:04:28;100359.78;;;20.04;100.00
77159;BME280;66129;45.890;13.714;2023-07-20T03:06:53;100322.03;;;19.85;100.00
77159;BME280;66129;45.890;13.714;2023-07-20T03:09:19;100336.00;;;19.83;100.00
77159;BME280;66129;45.890;13.714;2023-07-20T03:11:44;100334.34;;;19.79;100.00
77159;BME280;66129;45.890;13.714;2023-07-20T03:14:10;100321.44;;;19.76;100.00
77159;BME280;66129;45.890;13.714;2023-07-20T03:16:36;100335.19;;;19.79;100.00
77159;BME280;66129;45.890;13.714;2023-07-20T03:19:01;100340.41;;;19.79;100.00
77159;BME280;66129;45.890;13.714;2023-07-20T03:21:27;100339.91;;;19.65;100.00
77159;BME280;66129;45.890;13.714;2023-07-20T03:23:53;100383.38;;;19.95;100.00
77159;BME280;66129;45.890;13.714;2023-07-20T03:26:19;100338.13;;;19.67;100.00
77159;BME280;66129;45.890;13.714;2023-07-20T03:28:44;100347.50;;;19.73;100.00
77159;BME280;66129;45.890;13.714;2023-07-20T03:31:10;100337.09;;;19.74;100.00
77159;BME280;66129;45.890;13.714;2023-07-20T03:33:35;100368.81;;;19.88;100.00
77159;BME280;66129;45.890;13.714;2023-07-20T03:36:04;100392.72;;;20.05;100.00
77159;BME280;66129;45.890;13.714;2023-07-20T03:38:33;100389.03;;;20.14;100.00
77159;BME280;66129;45.890;13.714;2023-07-20T03:40:59;100372.78;;;20.04;100.00
77159;BME280;66129;45.890;13.714;2023-07-20T03:43:26;100388.22;;;20.12;100.00
77159;BME280;66129;45.890;13.714;2023-07-20T03:45:52;100398.56;;;20.13;100.00
77159;BME280;66129;45.890;13.714;2023-07-20T03:48:27;100367.91;;;19.89;100.00
77159;BME280;66129;45.890;13.714;2023-07-20T03:50:53;100408.16;;;20.11;100.00
77159;BME280;66129;45.890;13.714;2023-07-20T03:53:19;100390.28;;;19.96;100.00
77159;BME280;66129;45.890;13.714;2023-07-20T03:55:45;100412.31;;;20.18;100.00
77159;BME280;66129;45.890;13.714;2023-07-20T03:58:12;100362.75;;;19.88;100.00
77159;BME280;66129;45.890;13.714;2023-07-20T04:00:48;100372.28;;;19.87;100.00
77159;BME280;66129;45.890;13.714;2023-07-20T04:03:26;100369.00;;;19.79;100.00
77159;BME280;66129;45.890;13.714;2023-07-20T04:05:54;100425.34;;;20.18;100.00
77159;BME280;66129;45.890;13.714;2023-07-20T04:08:23;100376.59;;;19.90;100.00
77159;BME280;66129;45.890;13.714;2023-07-20T04:10:49;100377.44;;;19.90;100.00
77159;BME280;66129;45.890;13.714;2023-07-20T04:13:18;100434.03;;;20.17;100.00
77159;BME280;66129;45.890;13.714;2023-07-20T04:15:44;100404.78;;;20.08;100.00
77159;BME280;66129;45.890;13.714;2023-07-20T04:18:09;100441.66;;;20.24;100.00
77159;BME280;66129;45.890;13.714;2023-07-20T04:20:35;100426.84;;;20.28;100.00
77159;BME280;66129;45.890;13.714;2023-07-20T04:23:00;100378.97;;;20.00;100.00
77159;BME280;66129;45.890;13.714;2023-07-20T04:25:26;100417.38;;;20.24;100.00
77159;BME280;66129;45.890;13.714;2023-07-20T04:27:51;100445.38;;;20.49;100.00
77159;BME280;66129;45.890;13.714;2023-07-20T04:30:17;100386.84;;;20.30;100.00
77159;BME280;66129;45.890;13.714;2023-07-20T04:32:45;100420.78;;;20.59;100.00
77159;BME280;66129;45.890;13.714;2023-07-20T04:38:05;100446.81;;;21.25;97.94
77159;BME280;66129;45.890;13.714;2023-07-20T04:40:31;100378.53;;;21.11;96.17
77159;BME280;66129;45.890;13.714;2023-07-20T04:42:56;100452.41;;;21.70;94.46
77159;BME280;66129;45.890;13.714;2023-07-20T04:45:22;100399.50;;;21.65;94.08
77159;BME280;66129;45.890;13.714;2023-07-20T04:47:49;100412.34;;;21.99;91.79
77159;BME280;66129;45.890;13.714;2023-07-20T04:50:16;100471.84;;;22.43;90.01
77159;BME280;66129;45.890;13.714;2023-07-20T04:52:41;100412.84;;;22.10;88.84
77159;BME280;66129;45.890;13.714;2023-07-20T04:55:07;100471.16;;;22.63;88.92
77159;BME280;66129;45.890;13.714;2023-07-20T04:57:33;100429.34;;;22.63;88.13
77159;BME280;66129;45.890;13.714;2023-07-20T04:59:58;100470.97;;;23.17;87.18
77159;BME280;66129;45.890;13.714;2023-07-20T05:02:24;100436.47;;;23.07;86.40
77159;BME280;66129;45.890;13.714;2023-07-20T05:04:49;100447.50;;;23.38;83.89
77159;BME280;66129;45.890;13.714;2023-07-20T05:07:17;100446.53;;;23.63;82.19
77159;BME280;66129;45.890;13.714;2023-07-20T05:09:43;100422.56;;;23.74;80.07
77159;BME280;66129;45.890;13.714;2023-07-20T05:12:08;100461.25;;;24.10;79.04
77159;BME280;66129;45.890;13.714;2023-07-20T05:14:34;100440.50;;;24.27;77.55
77159;BME280;66129;45.890;13.714;2023-07-20T05:16:59;100453.91;;;24.61;75.98
77159;BME280;66129;45.890;13.714;2023-07-20T05:19:27;100423.22;;;24.63;77.38
77159;BME280;66129;45.890;13.714;2023-07-20T05:21:53;100426.88;;;24.99;73.87
77159;BME280;66129;45.890;13.714;2023-07-20T05:24:18;100411.97;;;24.81;73.76
77159;BME280;66129;45.890;13.714;2023-07-20T05:26:44;100439.22;;;25.17;72.54
77159;BME280;66129;45.890;13.714;2023-07-20T05:29:09;100409.56;;;24.95;75.21
77159;BME280;66129;45.890;13.714;2023-07-20T05:31:35;100470.25;;;25.46;74.05
77159;BME280;66129;45.890;13.714;2023-07-20T05:34:00;100415.75;;;25.51;71.96
77159;BME280;66129;45.890;13.714;2023-07-20T05:36:26;100415.41;;;25.77;69.12
77159;BME280;66129;45.890;13.714;2023-07-20T05:38:52;100411.72;;;25.62;69.91
77159;BME280;66129;45.890;13.714;2023-07-20T05:41:17;100450.22;;;26.17;69.63
77159;BME280;66129;45.890;13.714;2023-07-20T05:43:43;100414.00;;;26.05;69.29
77159;BME280;66129;45.890;13.714;2023-07-20T05:46:08;100446.00;;;26.48;67.75
77159;BME280;66129;45.890;13.714;2023-07-20T05:48:35;100422.63;;;26.76;67.68
77159;BME280;66129;45.890;13.714;2023-07-20T05:51:01;100448.16;;;27.08;65.41
77159;BME280;66129;45.890;13.714;2023-07-20T05:53:26;100452.16;;;27.15;65.04
77159;BME280;66129;45.890;13.714;2023-07-20T05:55:53;100444.66;;;27.72;58.91
77159;BME280;66129;45.890;13.714;2023-07-20T05:58:20;100452.56;;;27.88;58.10
77159;BME280;66129;45.890;13.714;2023-07-20T06:00:49;100449.38;;;27.18;54.13
77159;BME280;66129;45.890;13.714;2023-07-20T06:03:15;100430.25;;;26.65;52.77
77159;BME280;66129;45.890;13.714;2023-07-20T06:05:42;100439.78;;;26.32;54.34
77159;BME280;66129;45.890;13.714;2023-07-20T06:08:08;100448.34;;;26.19;53.42
77159;BME280;66129;45.890;13.714;2023-07-20T06:10:33;100449.09;;;26.56;53.40
77159;BME280;66129;45.890;13.714;2023-07-20T06:12:59;100444.00;;;27.52;51.46
77159;BME280;66129;45.890;13.714;2023-07-20T06:15:26;100442.38;;;28.11;49.00
77159;BME280;66129;45.890;13.714;2023-07-20T06:17:53;100462.78;;;28.68;47.56
77159;BME280;66129;45.890;13.714;2023-07-20T06:20:18;100414.38;;;28.39;46.52
77159;BME280;66129;45.890;13.714;2023-07-20T06:22:44;100429.69;;;28.48;47.17
77159;BME280;66129;45.890;13.714;2023-07-20T06:25:10;100453.00;;;29.27;45.75
77159;BME280;66129;45.890;13.714;2023-07-20T06:27:36;100430.16;;;29.54;45.70
77159;BME280;66129;45.890;13.714;2023-07-20T06:30:02;100460.69;;;28.88;45.80
77159;BME280;66129;45.890;13.714;2023-07-20T06:32:27;100446.63;;;28.44;46.60
77159;BME280;66129;45.890;13.714;2023-07-20T06:34:53;100459.13;;;29.28;45.09
77159;BME280;66129;45.890;13.714;2023-07-20T06:37:19;100462.16;;;28.78;44.91
77159;BME280;66129;45.890;13.714;2023-07-20T06:39:49;100458.47;;;28.22;44.85
77159;BME280;66129;45.890;13.714;2023-07-20T06:42:14;100447.09;;;27.75;46.01
77159;BME280;66129;45.890;13.714;2023-07-20T06:44:40;100448.75;;;27.61;45.99
77159;BME280;66129;45.890;13.714;2023-07-20T06:47:05;100437.84;;;27.84;45.66
77159;BME280;66129;45.890;13.714;2023-07-20T06:49:30;100452.56;;;27.88;47.09
77159;BME280;66129;45.890;13.714;2023-07-20T06:51:56;100471.50;;;27.79;47.28
77159;BME280;66129;45.890;13.714;2023-07-20T06:54:22;100440.53;;;27.67;47.39
77159;BME280;66129;45.890;13.714;2023-07-20T06:56:48;100460.25;;;28.80;44.98
77159;BME280;66129;45.890;13.714;2023-07-20T06:59:13;100445.72;;;29.72;42.43
77159;BME280;66129;45.890;13.714;2023-07-20T07:01:39;100460.00;;;30.49;40.32
77159;BME280;66129;45.890;13.714;2023-07-20T07:04:04;100445.03;;;29.69;41.66
77159;BME280;66129;45.890;13.714;2023-07-20T07:06:31;100450.53;;;28.96;43.93
77159;BME280;66129;45.890;13.714;2023-07-20T07:09:01;100462.78;;;29.39;42.94
77159;BME280;66129;45.890;13.714;2023-07-20T07:11:26;100443.84;;;30.01;41.69
77159;BME280;66129;45.890;13.714;2023-07-20T07:13:53;100450.78;;;30.93;39.49
77159;BME280;66129;45.890;13.714;2023-07-20T07:16:22;100459.72;;;31.42;39.39
77159;BME280;66129;45.890;13.714;2023-07-20T07:18:49;100451.22;;;30.87;40.18
77159;BME280;66129;45.890;13.714;2023-07-20T07:21:15;100458.63;;;31.57;38.62
77159;BME280;66129;45.890;13.714;2023-07-20T07:23:41;100454.88;;;32.20;37.82
77159;BME280;66129;45.890;13.714;2023-07-20T07:26:06;100453.78;;;32.23;37.26
77159;BME280;66129;45.890;13.714;2023-07-20T07:28:32;100454.66;;;32.58;37.26
77159;BME280;66129;45.890;13.714;2023-07-20T07:30:57;100443.00;;;32.37;37.54
77159;BME280;66129;45.890;13.714;2023-07-20T07:33:23;100464.38;;;31.14;37.57
77159;BME280;66129;45.890;13.714;2023-07-20T07:35:50;100462.22;;;30.81;40.35
77159;BME280;66129;45.890;13.714;2023-07-20T07:38:22;100448.78;;;31.47;38.77
77159;BME280;66129;45.890;13.714;2023-07-20T07:40:48;100472.56;;;31.61;38.55
77159;BME280;66129;45.890;13.714;2023-07-20T07:43:14;100458.72;;;32.16;38.19
77159;BME280;66129;45.890;13.714;2023-07-20T07:45:39;100442.09;;;32.60;36.42
77159;BME280;66129;45.890;13.714;2023-07-20T07:48:06;100463.03;;;32.64;35.73
77159;BME280;66129;45.890;13.714;2023-07-20T07:50:32;100469.41;;;32.62;35.36
77159;BME280;66129;45.890;13.714;2023-07-20T07:52:58;100462.25;;;32.28;36.10
77159;BME280;66129;45.890;13.714;2023-07-20T07:55:25;100457.56;;;30.97;38.71
77159;BME280;66129;45.890;13.714;2023-07-20T07:57:54;100437.66;;;31.04;38.69
77159;BME280;66129;45.890;13.714;2023-07-20T08:00:20;100438.88;;;31.74;37.14
77159;BME280;66129;45.890;13.714;2023-07-20T08:02:45;100451.78;;;32.37;36.15
77159;BME280;66129;45.890;13.714;2023-07-20T08:05:14;100443.28;;;32.90;35.42
77159;BME280;66129;45.890;13.714;2023-07-20T08:07:40;100447.41;;;32.94;36.21
77159;BME280;66129;45.890;13.714;2023-07-20T08:10:06;100427.66;;;33.20;35.11
77159;BME280;66129;45.890;13.714;2023-07-20T08:12:32;100431.03;;;33.33;34.92
77159;BME280;66129;45.890;13.714;2023-07-20T08:14:57;100437.78;;;33.59;34.51
77159;BME280;66129;45.890;13.714;2023-07-20T08:17:23;100457.44;;;34.00;34.58
77159;BME280;66129;45.890;13.714;2023-07-20T08:19:48;100448.22;;;33.73;34.09
77159;BME280;66129;45.890;13.714;2023-07-20T08:22:14;100430.16;;;33.87;33.51
77159;BME280;66129;45.890;13.714;2023-07-20T08:24:40;100455.72;;;34.10;33.74
77159;BME280;66129;45.890;13.714;2023-07-20T08:27:06;100440.13;;;34.06;33.29
77159;BME280;66129;45.890;13.714;2023-07-20T08:29:35;100440.59;;;34.11;31.94
77159;BME280;66129;45.890;13.714;2023-07-20T08:32:01;100460.41;;;33.86;32.34
77159;BME280;66129;45.890;13.714;2023-07-20T08:34:27;100437.19;;;33.88;33.67
77159;BME280;66129;45.890;13.714;2023-07-20T08:36:52;100408.16;;;33.74;33.13
77159;BME280;66129;45.890;13.714;2023-07-20T08:39:18;100452.66;;;33.72;32.98
77159;BME280;66129;45.890;13.714;2023-07-20T08:41:43;100456.88;;;33.53;33.28
77159;BME280;66129;45.890;13.714;2023-07-20T08:44:10;100414.22;;;33.43;33.57
77159;BME280;66129;45.890;13.714;2023-07-20T08:46:38;100422.97;;;33.23;33.28
77159;BME280;66129;45.890;13.714;2023-07-20T08:49:04;100392.09;;;32.77;33.70
77159;BME280;66129;45.890;13.714;2023-07-20T08:51:30;100407.84;;;33.24;33.96
77159;BME280;66129;45.890;13.714;2023-07-20T08:53:58;100438.34;;;33.95;34.49
77159;BME280;66129;45.890;13.714;2023-07-20T08:56:25;100397.78;;;33.71;34.48
77159;BME280;66129;45.890;13.714;2023-07-20T08:58:53;100423.19;;;33.53;33.94
77159;BME280;66129;45.890;13.714;2023-07-20T09:01:19;100416.66;;;33.46;33.04
77159;BME280;66129;45.890;13.714;2023-07-20T09:03:46;100428.34;;;33.44;33.97
77159;BME280;66129;45.890;13.714;2023-07-20T09:06:12;100440.09;;;33.19;32.58
77159;BME280;66129;45.890;13.714;2023-07-20T09:08:38;100442.75;;;33.41;32.76
77159;BME280;66129;45.890;13.714;2023-07-20T09:11:04;100438.75;;;33.80;34.39
77159;BME280;66129;45.890;13.714;2023-07-20T09:13:29;100389.44;;;34.07;32.85
77159;BME280;66129;45.890;13.714;2023-07-20T09:15:55;100438.66;;;34.24;32.85
77159;BME280;66129;45.890;13.714;2023-07-20T09:18:24;100400.50;;;33.92;34.24
77159;BME280;66129;45.890;13.714;2023-07-20T09:20:50;100426.13;;;34.35;32.39
77159;BME280;66129;45.890;13.714;2023-07-20T09:23:16;100411.44;;;34.20;32.44
77159;BME280;66129;45.890;13.714;2023-07-20T09:25:42;100426.97;;;34.04;31.76
77159;BME280;66129;45.890;13.714;2023-07-20T09:28:07;100422.53;;;34.25;31.89
77159;BME280;66129;45.890;13.714;2023-07-20T09:30:33;100415.69;;;34.43;31.81
77159;BME280;66129;45.890;13.714;2023-07-20T09:32:59;100426.25;;;34.85;31.05
77159;BME280;66129;45.890;13.714;2023-07-20T09:35:25;100411.63;;;35.30;30.34
77159;BME280;66129;45.890;13.714;2023-07-20T09:37:58;100429.25;;;35.51;29.60
77159;BME280;66129;45.890;13.714;2023-07-20T09:40:25;100392.44;;;35.45;30.13
77159;BME280;66129;45.890;13.714;2023-07-20T09:42:52;100380.34;;;35.32;30.13
77159;BME280;66129;45.890;13.714;2023-07-20T09:45:19;100422.91;;;35.43;30.46
77159;BME280;66129;45.890;13.714;2023-07-20T09:47:45;100403.59;;;35.00;30.59
77159;BME280;66129;45.890;13.714;2023-07-20T09:50:11;100408.69;;;35.33;29.83
77159;BME280;66129;45.890;13.714;2023-07-20T09:52:41;100404.47;;;35.01;30.00
77159;BME280;66129;45.890;13.714;2023-07-20T09:55:09;100409.31;;;35.46;30.30
77159;BME280;66129;45.890;13.714;2023-07-20T09:57:49;100365.97;;;35.63;28.52
77159;BME280;66129;45.890;13.714;2023-07-20T10:00:14;100405.91;;;35.83;28.50
77159;BME280;66129;45.890;13.714;2023-07-20T10:02:45;100407.31;;;35.87;29.44
77159;BME280;66129;45.890;13.714;2023-07-20T10:05:14;100409.16;;;35.47;29.08
77159;BME280;66129;45.890;13.714;2023-07-20T10:07:48;100400.38;;;34.97;30.71
77159;BME280;66129;45.890;13.714;2023-07-20T10:10:18;100399.22;;;35.20;31.16
77159;BME280;66129;45.890;13.714;2023-07-20T10:12:49;100407.94;;;35.22;30.16
77159;BME280;66129;45.890;13.714;2023-07-20T10:15:28;100359.13;;;34.71;30.30
77159;BME280;66129;45.890;13.714;2023-07-20T10:20:33;100364.56;;;34.90;29.95
77159;BME280;66129;45.890;13.714;2023-07-20T10:23:00;100392.78;;;34.72;29.70
77159;BME280;66129;45.890;13.714;2023-07-20T10:25:26;100407.97;;;34.81;31.33
77159;BME280;66129;45.890;13.714;2023-07-20T10:27:52;100406.19;;;34.61;30.39
77159;BME280;66129;45.890;13.714;2023-07-20T10:30:18;100385.53;;;34.74;30.97
77159;BME280;66129;45.890;13.714;2023-07-20T10:32:45;100377.38;;;34.75;30.63
77159;BME280;66129;45.890;13.714;2023-07-20T10:35:16;100413.28;;;35.01;30.57
77159;BME280;66129;45.890;13.714;2023-07-20T10:38:07;100419.31;;;35.03;29.97
77159;BME280;66129;45.890;13.714;2023-07-20T10:40:36;100414.06;;;35.13;31.75
77159;BME280;66129;45.890;13.714;2023-07-20T10:43:06;100419.38;;;34.62;29.49
77159;BME280;66129;45.890;13.714;2023-07-20T10:45:35;100408.50;;;34.54;30.65
77159;BME280;66129;45.890;13.714;2023-07-20T10:48:21;100403.75;;;34.78;32.56
77159;BME280;66129;45.890;13.714;2023-07-20T10:53:35;100410.41;;;34.32;31.40
77159;BME280;66129;45.890;13.714;2023-07-20T10:56:21;100402.75;;;34.07;30.83
77159;BME280;66129;45.890;13.714;2023-07-20T10:58:47;100395.56;;;33.87;32.04
77159;BME280;66129;45.890;13.714;2023-07-20T11:01:19;100402.13;;;33.83;31.70
77159;BME280;66129;45.890;13.714;2023-07-20T11:03:49;100403.34;;;33.57;31.96
77159;BME280;66129;45.890;13.714;2023-07-20T11:09:06;100398.03;;;33.46;33.05
77159;BME280;66129;45.890;13.714;2023-07-20T11:11:42;100390.75;;;33.59;32.28
77159;BME280;66129;45.890;13.714;2023-07-20T11:14:21;100395.78;;;33.95;32.96
77159;BME280;66129;45.890;13.714;2023-07-20T11:16:49;100381.63;;;33.95;32.70
77159;BME280;66129;45.890;13.714;2023-07-20T11:19:25;100386.34;;;33.91;32.71
77159;BME280;66129;45.890;13.714;2023-07-20T11:21:55;100388.13;;;34.13;32.67
77159;BME280;66129;45.890;13.714;2023-07-20T11:24:21;100365.59;;;34.06;33.31
77159;BME280;66129;45.890;13.714;2023-07-20T11:26:52;100373.31;;;33.88;32.56
77159;BME280;66129;45.890;13.714;2023-07-20T11:29:21;100374.47;;;33.95;31.94
77159;BME280;66129;45.890;13.714;2023-07-20T11:31:49;100371.13;;;34.25;32.85
77159;BME280;66129;45.890;13.714;2023-07-20T11:34:20;100380.97;;;34.33;32.05
77159;BME280;66129;45.890;13.714;2023-07-20T11:36:48;100388.34;;;34.10;32.00
77159;BME280;66129;45.890;13.714;2023-07-20T11:39:16;100378.34;;;33.91;32.50
77159;BME280;66129;45.890;13.714;2023-07-20T11:41:50;100362.47;;;33.80;33.11
77159;BME280;66129;45.890;13.714;2023-07-20T11:44:21;100354.78;;;33.44;33.32
77159;BME280;66129;45.890;13.714;2023-07-20T11:47:05;100372.28;;;33.58;33.27
77159;BME280;66129;45.890;13.714;2023-07-20T11:49:36;100366.81;;;33.70;33.32
77159;BME280;66129;45.890;13.714;2023-07-20T11:52:04;100342.09;;;33.37;33.88
77159;BME280;66129;45.890;13.714;2023-07-20T11:54:30;100377.50;;;33.48;33.15
77159;BME280;66129;45.890;13.714;2023-07-20T11:56:56;100369.38;;;33.50;33.20
77159;BME280;66129;45.890;13.714;2023-07-20T11:59:22;100364.69;;;33.53;32.74
77159;BME280;66129;45.890;13.714;2023-07-20T12:01:47;100366.81;;;33.59;32.95
77159;BME280;66129;45.890;13.714;2023-07-20T12:04:13;100358.00;;;33.59;34.47
77159;BME280;66129;45.890;13.714;2023-07-20T12:06:39;100335.31;;;33.66;35.19
77159;BME280;66129;45.890;13.714;2023-07-20T12:09:04;100367.06;;;33.67;33.54
77159;BME280;66129;45.890;13.714;2023-07-20T12:11:34;100356.19;;;33.59;33.65
77159;BME280;66129;45.890;13.714;2023-07-20T12:14:00;100349.22;;;33.47;34.40
77159;BME280;66129;45.890;13.714;2023-07-20T12:16:29;100354.47;;;33.80;34.26
77159;BME280;66129;45.890;13.714;2023-07-20T12:19:09;100354.97;;;33.74;33.97
77159;BME280;66129;45.890;13.714;2023-07-20T12:21:36;100348.97;;;33.50;34.03
77159;BME280;66129;45.890;13.714;2023-07-20T12:24:02;100324.41;;;33.47;34.37
77159;BME280;66129;45.890;13.714;2023-07-20T12:26:29;100330.69;;;33.57;33.73
77159;BME280;66129;45.890;13.714;2023-07-20T12:28:55;100316.91;;;33.52;33.50
77159;BME280;66129;45.890;13.714;2023-07-20T12:31:21;100342.53;;;33.53;34.71
77159;BME280;66129;45.890;13.714;2023-07-20T12:33:48;100298.84;;;33.35;35.20
77159;BME280;66129;45.890;13.714;2023-07-20T12:36:14;100324.66;;;33.55;34.92
77159;BME280;66129;45.890;13.714;2023-07-20T12:38:40;100311.84;;;33.49;35.11
77159;BME280;66129;45.890;13.714;2023-07-20T12:41:07;100337.91;;;33.77;34.80
77159;BME280;66129;45.890;13.714;2023-07-20T12:43:33;100302.72;;;33.42;34.38
77159;BME280;66129;45.890;13.714;2023-07-20T12:45:59;100291.28;;;33.62;33.49
77159;BME280;66129;45.890;13.714;2023-07-20T12:48:24;100279.84;;;33.39;34.82
77159;BME280;66129;45.890;13.714;2023-07-20T12:50:50;100278.88;;;33.51;35.14
77159;BME280;66129;45.890;13.714;2023-07-20T12:53:16;100320.22;;;33.87;34.78